createdAt,value
2022-08-05T00:00:09.003Z,62.95
2022-08-05T00:02:57.942Z,63.56
2022-08-05T00:06:05.410Z,63.36
2022-08-05T00:08:55.005Z,63.80
2022-08-05T00:11:49.479Z,64.20
2022-08-05T00:14:45.407Z,64.27
2022-08-05T00:17:40.122Z,64.48
2022-08-05T00:20:30.150Z,64.38
2022-08-05T00:23:44.617Z,64.25
2022-08-05T00:26:27.868Z,64.35
2022-08-05T00:29:19.071Z,64.46
2022-08-05T00:32:15.391Z,64.35
2022-08-05T00:35:06.839Z,64.86
2022-08-05T00:37:56.172Z,64.60
2022-08-05T00:40:51.961Z,64.64
2022-08-05T00:43:46.893Z,64.60
2022-08-05T00:46:42.668Z,64.54
2022-08-05T00:49:44.772Z,64.76
2022-08-05T00:52:40.004Z,64.53
2022-08-05T00:55:42.661Z,64.84
2022-08-05T00:58:32.258Z,64.80
2022-08-05T01:01:42.118Z,64.53
2022-08-05T01:04:29.930Z,65.04
2022-08-05T01:07:20.020Z,65.29
2022-08-05T01:10:11.520Z,65.33
2022-08-05T01:13:19.382Z,65.41
2022-08-05T01:16:26.245Z,65.73
2022-08-05T01:19:36.566Z,65.96
2022-08-05T01:22:54.096Z,66.01
2022-08-05T01:25:58.735Z,66.92
2022-08-05T01:28:54.999Z,66.87
2022-08-05T01:31:47.816Z,67.20
2022-08-05T01:34:42.552Z,67.45
2022-08-05T01:37:44.282Z,67.62
2022-08-05T01:40:35.145Z,67.82
2022-08-05T01:43:25.377Z,67.82
2022-08-05T01:46:41.209Z,68.43
2022-08-05T01:49:26.886Z,68.98
2022-08-05T01:52:39.279Z,69.28
2022-08-05T01:55:30.613Z,69.20
2022-08-05T01:58:41.016Z,69.68
2022-08-05T02:01:40.321Z,70.26
2022-08-05T02:04:30.424Z,70.16
2022-08-05T02:07:21.883Z,70.66
2022-08-05T02:10:12.601Z,70.65
2022-08-05T02:13:16.029Z,70.95
2022-08-05T02:16:16.471Z,70.95
2022-08-05T02:19:13.080Z,70.81
2022-08-05T02:22:07.205Z,70.87
2022-08-05T02:25:02.953Z,71.38
2022-08-05T02:27:58.224Z,71.30
2022-08-05T02:30:55.657Z,71.41
2022-08-05T02:33:57.446Z,71.34
2022-08-05T02:36:53.068Z,71.56
2022-08-05T02:39:43.232Z,71.51
2022-08-05T02:42:37.201Z,71.77
2022-08-05T02:45:27.130Z,71.75
2022-08-05T02:48:18.552Z,71.25
2022-08-05T02:51:07.522Z,71.19
2022-08-05T02:54:03.989Z,71.38
2022-08-05T02:56:53.398Z,71.29
2022-08-05T02:59:50.368Z,71.61
2022-08-05T03:02:42.939Z,71.52
2022-08-05T03:06:56.882Z,71.63
2022-08-05T03:08:43.300Z,72.17
2022-08-05T03:11:54.843Z,72.13
2022-08-05T03:14:46.088Z,72.61
2022-08-05T03:17:34.961Z,72.43
2022-08-05T03:20:30.479Z,72.36
2022-08-05T03:23:19.154Z,72.47
2022-08-05T03:26:31.781Z,72.42
2022-08-05T03:29:22.565Z,72.46
2022-08-05T03:32:12.047Z,72.90
2022-08-05T03:35:04.454Z,72.96
2022-08-05T03:37:53.531Z,72.96
2022-08-05T03:40:45.279Z,72.95
2022-08-05T03:44:09.269Z,73.03
2022-08-05T03:46:45.640Z,73.45
2022-08-05T03:49:51.716Z,73.28
2022-08-05T03:55:06.810Z,72.79
2022-08-05T03:56:12.115Z,73.05
2022-08-05T03:59:10.501Z,72.93
2022-08-05T04:02:02.576Z,72.53
2022-08-05T04:04:53.189Z,72.78
2022-08-05T04:07:58.733Z,72.78
2022-08-05T04:10:47.815Z,72.56
2022-08-05T04:13:49.948Z,72.50
2022-08-05T04:16:39.367Z,72.38
2022-08-05T04:19:30.626Z,72.18
2022-08-05T04:22:20.647Z,72.17
2022-08-05T04:25:11.041Z,71.97
2022-08-05T04:28:03.960Z,71.48
2022-08-05T04:31:01.169Z,71.42
2022-08-05T04:34:17.302Z,70.93
2022-08-05T04:37:01.029Z,70.72
2022-08-05T04:39:52.899Z,70.48
2022-08-05T04:42:44.217Z,70.55
2022-08-05T04:45:48.200Z,70.70
2022-08-05T04:48:37.786Z,70.46
2022-08-05T04:51:26.167Z,70.60
2022-08-05T04:54:21.998Z,70.25
2022-08-05T04:57:10.399Z,70.27
2022-08-05T04:59:59.061Z,69.87
2022-08-05T05:02:47.616Z,69.56
2022-08-05T05:06:40.069Z,69.71
2022-08-05T05:08:45.248Z,69.83
2022-08-05T05:11:52.776Z,69.84
2022-08-05T05:14:49.470Z,69.36
2022-08-05T05:17:55.930Z,69.47
2022-08-05T05:20:46.953Z,69.38
2022-08-05T05:24:02.412Z,70.09
2022-08-05T05:26:48.005Z,69.78
2022-08-05T05:29:40.932Z,69.81
2022-08-05T05:32:49.214Z,69.61
2022-08-05T05:35:39.701Z,69.15
2022-08-05T05:38:31.008Z,68.78
2022-08-05T05:41:20.058Z,68.86
2022-08-05T05:44:35.949Z,68.45
2022-08-05T05:47:30.538Z,68.54
2022-08-05T05:50:27.897Z,67.84
2022-08-05T05:53:22.112Z,67.61
2022-08-05T05:56:10.969Z,67.60
2022-08-05T05:59:03.113Z,67.93
2022-08-05T06:01:57.698Z,66.72
2022-08-05T06:04:49.207Z,66.21
2022-08-05T06:07:41.834Z,65.77
2022-08-05T06:10:36.321Z,65.51
2022-08-05T06:13:26.169Z,65.30
2022-08-05T06:16:28.432Z,64.63
2022-08-05T06:19:32.902Z,63.75
2022-08-05T06:22:24.973Z,63.42
2022-08-05T06:25:59.741Z,63.23
2022-08-05T06:28:22.025Z,63.42
2022-08-05T06:31:11.124Z,63.29
2022-08-05T06:34:09.014Z,63.30
2022-08-05T06:36:59.055Z,62.82
2022-08-05T06:39:47.629Z,62.17
2022-08-05T06:42:37.486Z,62.08
2022-08-05T06:46:03.346Z,62.14
2022-08-05T06:48:55.953Z,61.88
2022-08-05T06:51:45.868Z,62.05
2022-08-05T06:54:36.430Z,60.66
2022-08-05T06:58:03.132Z,60.22
2022-08-05T07:00:34.010Z,60.09
2022-08-05T07:03:28.068Z,59.69
2022-08-05T07:06:22.891Z,59.31
2022-08-05T07:09:11.440Z,59.44
2022-08-05T07:12:03.784Z,58.97
2022-08-05T07:15:34.561Z,59.39
2022-08-05T07:18:30.079Z,59.00
2022-08-05T07:21:25.837Z,58.89
2022-08-05T07:24:14.554Z,58.51
2022-08-05T07:27:04.326Z,58.54
2022-08-05T07:30:27.579Z,57.82
2022-08-05T07:33:15.529Z,58.12
2022-08-05T07:36:20.246Z,57.90
2022-08-05T07:39:24.641Z,57.99
2022-08-05T07:42:33.372Z,56.26
2022-08-05T07:45:56.318Z,56.49
2022-08-05T07:49:00.597Z,56.83
2022-08-05T07:51:48.901Z,55.66
2022-08-05T07:54:49.043Z,55.39
2022-08-05T07:57:55.276Z,54.90
2022-08-05T08:00:47.905Z,54.86
2022-08-05T08:03:44.070Z,54.41
2022-08-05T08:06:33.496Z,54.07
2022-08-05T08:09:22.001Z,54.50
2022-08-05T08:12:29.698Z,54.58
2022-08-05T08:15:37.157Z,54.37
2022-08-05T08:18:28.915Z,54.65
2022-08-05T08:21:17.669Z,54.18
2022-08-05T08:24:13.813Z,54.62
2022-08-05T08:27:02.669Z,53.60
2022-08-05T08:30:05.854Z,53.45
2022-08-05T08:33:13.846Z,53.61
2022-08-05T08:36:29.589Z,52.65
2022-08-05T08:39:15.844Z,52.60
2022-08-05T08:42:10.607Z,51.08
2022-08-05T08:45:22.070Z,51.63
2022-08-05T08:48:41.344Z,50.51
2022-08-05T08:52:04.031Z,50.42
2022-08-05T08:54:37.779Z,50.91
2022-08-05T08:57:48.161Z,51.61
2022-08-05T09:00:37.500Z,51.29
2022-08-05T09:03:28.243Z,49.76
2022-08-05T09:06:31.374Z,49.20
2022-08-05T09:09:19.965Z,49.81
2022-08-05T09:12:20.254Z,49.73
2022-08-05T09:15:15.608Z,49.42
2022-08-05T09:18:04.155Z,49.04
2022-08-05T09:20:54.821Z,48.97
2022-08-05T09:23:46.316Z,48.83
2022-08-05T09:26:36.711Z,48.77
2022-08-05T09:29:47.543Z,48.47
2022-08-05T09:32:51.841Z,48.38
2022-08-05T09:36:11.749Z,48.04
2022-08-05T09:39:16.812Z,48.28
2022-08-05T09:42:08.395Z,47.84
2022-08-05T09:45:17.569Z,48.31
2022-08-05T09:48:27.042Z,47.03
2022-08-05T09:51:18.195Z,47.00
2022-08-05T09:54:09.505Z,46.45
2022-08-05T09:57:01.314Z,46.34
2022-08-05T09:59:50.254Z,46.70
2022-08-05T10:02:42.307Z,46.61
2022-08-05T10:05:32.838Z,45.84
2022-08-05T10:08:37.394Z,45.47
2022-08-05T10:11:31.335Z,45.12
2022-08-05T10:14:26.767Z,45.99
2022-08-05T10:17:37.622Z,45.41
2022-08-05T10:20:26.467Z,45.02
2022-08-05T10:23:34.413Z,45.04
2022-08-05T10:26:32.707Z,45.33
2022-08-05T10:30:41.984Z,45.55
2022-08-05T10:32:59.250Z,44.07
2022-08-05T10:35:59.063Z,44.09
2022-08-05T10:38:50.005Z,43.25
2022-08-05T10:41:47.816Z,43.22
2022-08-05T10:44:37.791Z,43.37
2022-08-05T10:47:34.440Z,43.49
2022-08-05T10:50:36.559Z,43.17
2022-08-05T10:53:38.167Z,42.53
2022-08-05T10:56:29.608Z,42.27
2022-08-05T11:00:02.517Z,42.22
2022-08-05T11:02:37.973Z,42.14
2022-08-05T11:05:29.315Z,41.99
2022-08-05T11:08:36.526Z,42.77
2022-08-05T11:11:52.163Z,43.99
2022-08-05T11:15:01.463Z,42.65
2022-08-05T11:18:00.452Z,42.36
2022-08-05T11:20:59.022Z,41.52
2022-08-05T11:24:05.092Z,40.40
2022-08-05T11:27:50.812Z,40.23
2022-08-05T11:31:08.675Z,40.05
2022-08-05T11:34:03.598Z,40.70
2022-08-05T11:36:53.247Z,40.21
2022-08-05T11:40:00.766Z,40.21
2022-08-05T11:42:51.717Z,39.35
2022-08-05T11:46:15.326Z,38.95
2022-08-05T11:48:57.718Z,39.24
2022-08-05T11:51:50.755Z,39.76
2022-08-05T11:54:40.352Z,38.90
2022-08-05T11:58:08.272Z,40.26
2022-08-05T12:00:39.140Z,39.56
2022-08-05T12:03:31.942Z,38.40
2022-08-05T12:06:23.043Z,36.96
2022-08-05T12:09:19.966Z,36.25
2022-08-05T12:12:09.598Z,35.91
2022-08-05T12:14:58.674Z,34.62
2022-08-05T12:18:03.999Z,34.42
2022-08-05T12:20:55.653Z,33.43
2022-08-05T12:23:54.316Z,32.37
2022-08-05T12:26:46.609Z,31.91
2022-08-05T12:29:37.983Z,32.38
2022-08-05T12:32:27.601Z,31.99
2022-08-05T12:35:16.872Z,31.85
2022-08-05T12:38:11.007Z,32.26
2022-08-05T12:41:00.644Z,33.53
2022-08-05T12:43:52.736Z,33.96
2022-08-05T12:46:45.619Z,32.57
2022-08-05T12:50:04.623Z,32.45
2022-08-05T12:52:59.815Z,31.22
2022-08-05T12:55:48.174Z,30.65
2022-08-05T12:58:53.531Z,30.49
2022-08-05T13:02:04.165Z,30.60
2022-08-05T13:04:56.499Z,30.30
2022-08-05T13:08:00.287Z,30.17
2022-08-05T13:10:50.477Z,29.69
2022-08-05T13:14:06.090Z,30.62
2022-08-05T13:16:59.755Z,31.36
2022-08-05T13:20:06.367Z,31.04
2022-08-05T13:22:57.426Z,30.03
2022-08-05T13:25:51.898Z,30.00
2022-08-05T13:28:47.566Z,29.93
2022-08-05T13:32:04.330Z,30.33
2022-08-05T13:34:52.017Z,29.60
2022-08-05T13:37:40.481Z,30.17
2022-08-05T13:40:48.015Z,30.30
2022-08-05T13:43:44.916Z,30.12
2022-08-05T13:47:05.008Z,30.89
2022-08-05T13:49:53.573Z,30.04
2022-08-05T13:52:42.112Z,29.87
2022-08-05T13:55:41.576Z,30.06
2022-08-05T13:58:37.805Z,30.55
2022-08-05T14:01:36.375Z,29.95
2022-08-05T14:04:53.929Z,30.96
2022-08-05T14:07:59.635Z,30.60
2022-08-05T14:10:53.966Z,30.74
2022-08-05T14:13:54.901Z,30.71
2022-08-05T14:16:45.462Z,29.86
2022-08-05T14:19:54.095Z,29.84
2022-08-05T14:22:50.247Z,30.37
2022-08-05T14:25:45.391Z,29.68
2022-08-05T14:28:34.717Z,29.63
2022-08-05T14:32:02.725Z,30.12
2022-08-05T14:34:35.404Z,29.85
2022-08-05T14:37:48.083Z,29.77
2022-08-05T14:40:34.432Z,29.46
2022-08-05T14:43:22.878Z,29.36
2022-08-05T14:46:32.247Z,29.37
2022-08-05T14:49:23.676Z,29.32
2022-08-05T14:52:52.489Z,30.02
2022-08-05T14:55:41.973Z,30.83
2022-08-05T14:58:30.414Z,30.29
2022-08-05T15:01:22.765Z,29.96
2022-08-05T15:04:28.926Z,29.52
2022-08-05T15:08:11.518Z,28.92
2022-08-05T15:10:28.948Z,29.93
2022-08-05T15:13:19.064Z,29.92
2022-08-05T15:16:13.219Z,29.34
2022-08-05T15:19:01.644Z,30.15
2022-08-05T15:21:50.018Z,30.20
2022-08-05T15:24:39.712Z,28.41
2022-08-05T15:27:35.854Z,29.09
2022-08-05T15:30:25.958Z,29.36
2022-08-05T15:34:04.564Z,28.34
2022-08-05T15:36:24.743Z,28.88
2022-08-05T15:41:01.027Z,28.91
2022-08-05T15:42:55.890Z,29.78
2022-08-05T15:45:38.307Z,29.97
2022-08-05T15:48:27.394Z,29.46
2022-08-05T15:51:15.994Z,28.93
2022-08-05T15:54:08.125Z,30.06
2022-08-05T15:56:56.931Z,29.91
2022-08-05T15:59:45.410Z,30.50
2022-08-05T16:02:35.917Z,29.99
2022-08-05T16:05:28.370Z,29.67
2022-08-05T16:08:16.975Z,31.02
2022-08-05T16:11:08.176Z,30.22
2022-08-05T16:13:56.507Z,30.09
2022-08-05T16:16:44.960Z,29.90
2022-08-05T16:20:04.270Z,30.29
2022-08-05T16:22:44.331Z,30.57
2022-08-05T16:25:34.146Z,30.92
2022-08-05T16:28:24.959Z,29.97
2022-08-05T16:31:16.247Z,31.17
2022-08-05T16:34:04.673Z,31.58
2022-08-05T16:36:56.311Z,31.60
2022-08-05T16:40:06.458Z,31.30
2022-08-05T16:42:53.933Z,31.08
2022-08-05T16:46:04.466Z,30.93
2022-08-05T16:48:50.727Z,31.42
2022-08-05T16:51:42.785Z,32.02
2022-08-05T16:54:41.289Z,32.16
2022-08-05T16:57:53.813Z,32.26
2022-08-05T17:00:38.592Z,32.33
2022-08-05T17:03:28.525Z,33.08
2022-08-05T17:06:19.566Z,33.23
2022-08-05T17:09:08.387Z,33.20
2022-08-05T17:11:59.619Z,33.75
2022-08-05T17:14:48.601Z,33.45
2022-08-05T17:17:42.396Z,33.15
2022-08-05T17:20:31.653Z,33.66
2022-08-05T17:24:04.877Z,33.64
2022-08-05T17:26:28.574Z,34.16
2022-08-05T17:29:22.464Z,34.39
2022-08-05T17:32:21.348Z,34.27
2022-08-05T17:35:15.476Z,34.86
2022-08-05T17:38:07.827Z,35.10
2022-08-05T17:40:56.882Z,34.87
2022-08-05T17:43:50.505Z,35.24
2022-08-05T17:46:43.322Z,35.68
2022-08-05T17:49:59.510Z,36.05
2022-08-05T17:52:53.075Z,36.58
2022-08-05T17:55:43.410Z,37.22
2022-08-05T17:58:35.207Z,37.39
2022-08-05T18:01:25.568Z,37.36
2022-08-05T18:04:21.162Z,37.28
2022-08-05T18:07:15.554Z,38.24
2022-08-05T18:10:10.168Z,38.46
2022-08-05T18:12:59.110Z,38.56
2022-08-05T18:15:50.357Z,38.92
2022-08-05T18:18:39.852Z,39.72
2022-08-05T18:22:09.297Z,40.30
2022-08-05T18:24:39.590Z,40.93
2022-08-05T18:27:28.434Z,41.88
2022-08-05T18:30:16.886Z,41.83
2022-08-05T18:33:06.282Z,42.42
2022-08-05T18:36:03.849Z,42.75
2022-08-05T18:38:55.153Z,43.05
2022-08-05T18:41:58.476Z,43.49
2022-08-05T18:44:56.183Z,43.75
2022-08-05T18:47:45.862Z,43.71
2022-08-05T18:50:54.900Z,44.54
2022-08-05T18:53:45.869Z,44.62
2022-08-05T18:56:40.546Z,45.08
2022-08-05T18:59:44.254Z,45.09
2022-08-05T19:02:38.455Z,45.59
2022-08-05T19:06:13.576Z,45.56
2022-08-05T19:08:35.613Z,46.26
2022-08-05T19:11:28.422Z,46.88
2022-08-05T19:14:44.717Z,47.24
2022-08-05T19:17:33.683Z,47.82
2022-08-05T19:20:35.643Z,48.45
2022-08-05T19:24:07.125Z,48.30
2022-08-05T19:26:33.688Z,48.70
2022-08-05T19:29:26.827Z,48.90
2022-08-05T19:32:26.189Z,49.38
2022-08-05T19:35:15.581Z,49.81
2022-08-05T19:38:06.436Z,50.18
2022-08-05T19:40:56.437Z,49.79
2022-08-05T19:44:06.102Z,50.58
2022-08-05T19:46:55.808Z,50.82
2022-08-05T19:49:46.305Z,51.16
2022-08-05T19:52:34.975Z,51.28
2022-08-05T19:56:15.598Z,51.56
2022-08-05T19:58:32.739Z,51.33
2022-08-05T20:01:41.155Z,51.15
2022-08-05T20:04:33.437Z,51.39
2022-08-05T20:07:38.935Z,51.70
2022-08-05T20:10:30.425Z,52.32
2022-08-05T20:13:29.998Z,53.18
2022-08-05T20:16:27.803Z,52.62
2022-08-05T20:19:16.406Z,52.49
2022-08-05T20:22:06.372Z,52.73
2022-08-05T20:24:58.266Z,53.18
2022-08-05T20:27:46.713Z,53.90
2022-08-05T20:30:38.608Z,54.08
2022-08-05T20:33:27.103Z,53.81
2022-08-05T20:36:22.387Z,54.05
2022-08-05T20:39:12.942Z,54.28
2022-08-05T20:42:01.895Z,53.80
2022-08-05T20:44:50.439Z,54.21
2022-08-05T20:47:40.061Z,54.36
2022-08-05T20:50:28.712Z,54.63
2022-08-05T20:53:40.612Z,54.62
2022-08-05T20:56:31.890Z,54.23
2022-08-05T20:59:26.896Z,54.38
2022-08-05T21:02:39.342Z,54.57
2022-08-05T21:05:38.005Z,54.83
2022-08-05T21:08:42.373Z,55.55
2022-08-05T21:12:07.367Z,55.46
2022-08-05T21:14:42.308Z,56.24
2022-08-05T21:17:31.951Z,56.25
2022-08-05T21:20:33.208Z,56.35
2022-08-05T21:23:22.716Z,56.50
2022-08-05T21:26:12.643Z,56.72
2022-08-05T21:29:05.047Z,56.19
2022-08-05T21:31:58.506Z,56.48
2022-08-05T21:35:08.421Z,56.38
2022-08-05T21:37:55.491Z,56.40
2022-08-05T21:40:43.916Z,56.48
2022-08-05T21:43:41.785Z,56.60
2022-08-05T21:46:32.059Z,56.83
2022-08-05T21:49:48.050Z,56.84
2022-08-05T21:52:31.988Z,57.19
2022-08-05T21:55:42.912Z,57.31
2022-08-05T21:58:31.484Z,57.49
2022-08-05T22:01:24.791Z,57.63
2022-08-05T22:04:14.856Z,57.77
2022-08-05T22:07:03.213Z,57.45
2022-08-05T22:09:51.699Z,57.65
2022-08-05T22:12:50.608Z,57.70
2022-08-05T22:15:56.555Z,58.25
2022-08-05T22:18:49.162Z,58.40
2022-08-05T22:21:39.143Z,59.26
2022-08-05T22:24:52.102Z,58.80
2022-08-05T22:28:11.308Z,58.42
2022-08-05T22:30:57.910Z,58.67
2022-08-05T22:33:58.071Z,58.40
2022-08-05T22:36:51.620Z,58.58
2022-08-05T22:39:40.609Z,58.31
2022-08-05T22:42:29.873Z,58.74
2022-08-05T22:45:19.815Z,58.51
2022-08-05T22:48:08.401Z,59.29
2022-08-05T22:50:56.973Z,59.19
2022-08-05T22:53:49.783Z,59.65
2022-08-05T22:56:40.047Z,59.65
2022-08-05T22:59:45.105Z,59.37
2022-08-05T23:02:37.610Z,58.85
2022-08-05T23:05:36.103Z,59.20
2022-08-05T23:08:24.721Z,59.00
2022-08-05T23:11:15.670Z,58.59
2022-08-05T23:14:04.429Z,58.77
2022-08-05T23:17:24.598Z,58.47
2022-08-05T23:20:23.558Z,58.39
2022-08-05T23:23:13.284Z,58.65
2022-08-05T23:26:01.841Z,58.38
2022-08-05T23:28:53.082Z,58.74
2022-08-05T23:31:42.567Z,58.53
2022-08-05T23:34:30.913Z,59.24
2022-08-05T23:37:19.821Z,59.24
2022-08-05T23:40:09.550Z,58.85
2022-08-05T23:43:00.071Z,59.27
2022-08-05T23:45:49.904Z,58.85
2022-08-05T23:48:39.325Z,59.51
2022-08-05T23:51:46.495Z,59.58
2022-08-05T23:54:41.255Z,60.26
2022-08-05T23:57:30.164Z,59.50
